Time;durP1;ratioP1;P1;durP2;ratioP2;P2;SDS_P1;SDS_P2;PMS_P1;PMS_P2;Temp;Humidity;BMP_temperature;BMP_pressure;BME280_temperature;BME280_humidity;BME280_pressure;Samples;Min_cycle;Max_cycle;Signal;HPM_P1;HPM_P2
2023/06/06 00:02:21;;;;;;;11.45;6.68;;;9.80;99.90;;;;;;5107768;27;20123;-82
2023/06/06 00:04:49;;;;;;;10.95;7.25;;;9.70;99.90;;;;;;5081078;27;20035;-82
2023/06/06 00:07:16;;;;;;;12.38;8.10;;;9.70;99.90;;;;;;5095355;27;20171;-82
2023/06/06 00:09:43;;;;;;;10.93;7.60;;;9.80;99.90;;;;;;5121308;27;20031;-82
2023/06/06 00:12:12;;;;;;;10.52;7.47;;;9.70;99.90;;;;;;5088853;27;20042;-82
2023/06/06 00:14:41;;;;;;;14.05;7.20;;;9.70;99.90;;;;;;5102489;27;20275;-82
2023/06/06 00:17:09;;;;;;;13.10;7.65;;;9.50;99.90;;;;;;5089047;28;20077;-82
2023/06/06 00:19:40;;;;;;;15.07;8.43;;;9.60;99.90;;;;;;5088000;27;20264;-82
2023/06/06 00:22:07;;;;;;;13.13;7.63;;;9.60;99.90;;;;;;5092759;27;20038;-82
2023/06/06 00:24:32;;;;;;;13.02;7.72;;;9.60;99.90;;;;;;5141068;27;20038;-82
2023/06/06 00:26:58;;;;;;;13.98;7.53;;;9.60;99.90;;;;;;5121831;27;20398;-82
2023/06/06 00:29:27;;;;;;;12.88;6.93;;;9.50;99.90;;;;;;5128681;27;20035;-83
2023/06/06 00:31:52;;;;;;;13.27;7.45;;;9.50;99.90;;;;;;5114827;27;20491;-82
2023/06/06 00:34:18;;;;;;;13.40;7.68;;;9.50;99.90;;;;;;5085859;28;20047;-82
2023/06/06 00:36:44;;;;;;;12.68;7.80;;;9.40;99.90;;;;;;5106385;27;20068;-83
2023/06/06 00:39:09;;;;;;;12.82;7.43;;;9.40;99.90;;;;;;5126369;27;20065;-82
2023/06/06 00:41:35;;;;;;;11.20;7.25;;;9.40;99.90;;;;;;5142816;27;20067;-83
2023/06/06 00:44:01;;;;;;;14.30;7.78;;;9.30;99.90;;;;;;5120481;27;20496;-83
2023/06/06 00:46:27;;;;;;;14.30;7.75;;;9.30;99.90;;;;;;5126129;27;20027;-82
2023/06/06 00:48:52;;;;;;;13.80;8.18;;;9.40;99.90;;;;;;5106402;27;20394;-82
2023/06/06 00:51:18;;;;;;;10.40;7.90;;;9.40;99.90;;;;;;5121995;27;20038;-82
2023/06/06 00:53:45;;;;;;;13.32;7.68;;;9.40;99.90;;;;;;5123589;27;20349;-83
2023/06/06 00:56:13;;;;;;;15.07;7.65;;;9.50;99.90;;;;;;5126167;27;20089;-82
2023/06/06 00:58:41;;;;;;;12.52;7.43;;;9.50;99.90;;;;;;5103814;27;20189;-82
2023/06/06 01:01:07;;;;;;;15.23;7.68;;;9.50;99.90;;;;;;5106291;27;20050;-82
2023/06/06 01:03:40;;;;;;;11.80;8.27;;;9.60;99.90;;;;;;5087109;28;20039;-83
2023/06/06 01:06:08;;;;;;;14.55;7.65;;;9.60;99.90;;;;;;5121689;27;20042;-82
2023/06/06 01:08:35;;;;;;;11.95;7.80;;;9.60;99.90;;;;;;5106350;27;20039;-83
2023/06/06 01:11:16;;;;;;;12.02;8.20;;;9.60;99.90;;;;;;5136160;27;20035;-83
2023/06/06 01:13:54;;;;;;;12.95;7.30;;;9.70;99.90;;;;;;5122144;27;20069;-83
2023/06/06 01:16:24;;;;;;;14.55;7.72;;;9.80;99.90;;;;;;5142383;27;20397;-83
2023/06/06 01:18:52;;;;;;;14.18;7.60;;;9.90;99.90;;;;;;5098965;28;20099;-83
2023/06/06 01:21:18;;;;;;;12.43;7.45;;;9.90;99.90;;;;;;5118705;27;20039;-82
2023/06/06 01:23:45;;;;;;;11.73;7.72;;;9.90;99.90;;;;;;5118714;27;20034;-83
2023/06/06 01:26:12;;;;;;;12.32;7.78;;;9.80;99.90;;;;;;5092362;27;20038;-83
2023/06/06 01:28:38;;;;;;;12.43;7.82;;;10.00;99.90;;;;;;5118885;27;20042;-83
2023/06/06 01:31:10;;;;;;;13.88;8.50;;;10.00;99.90;;;;;;5111626;27;20142;-83
2023/06/06 01:33:54;;;;;;;14.07;8.70;;;9.90;99.90;;;;;;5086675;27;20038;-83
2023/06/06 01:36:25;;;;;;;12.50;8.32;;;9.90;99.90;;;;;;5125216;27;20038;-83
2023/06/06 01:38:55;;;;;;;15.23;8.40;;;9.90;99.90;;;;;;5090810;27;20107;-83
2023/06/06 01:41:23;;;;;;;15.10;8.85;;;10.00;99.90;;;;;;5108260;27;20130;-83
2023/06/06 01:43:55;;;;;;;14.98;8.80;;;9.90;99.90;;;;;;5086969;27;20051;-83
2023/06/06 01:46:24;;;;;;;12.85;8.15;;;9.90;99.90;;;;;;5139423;27;20350;-83
2023/06/06 01:48:50;;;;;;;16.65;8.55;;;9.90;99.90;;;;;;5125385;27;20127;-83
2023/06/06 01:51:19;;;;;;;13.27;8.10;;;9.90;99.90;;;;;;5108520;27;20074;-83
2023/06/06 01:53:45;;;;;;;17.85;9.90;;;9.90;99.90;;;;;;5107552;27;20045;-83
2023/06/06 01:56:13;;;;;;;13.57;8.65;;;9.90;99.90;;;;;;5114148;27;20035;-83
2023/06/06 01:58:43;;;;;;;17.13;8.88;;;9.80;99.90;;;;;;5128916;27;20038;-83
2023/06/06 02:01:11;;;;;;;16.98;9.40;;;9.80;99.90;;;;;;5126754;27;20100;-84
2023/06/06 02:03:37;;;;;;;14.52;8.50;;;9.80;99.90;;;;;;5125630;27;20039;-83
2023/06/06 02:06:04;;;;;;;15.00;8.68;;;9.70;99.90;;;;;;5125092;27;20030;-83
2023/06/06 02:08:30;;;;;;;17.38;9.50;;;9.80;99.90;;;;;;5114776;27;20039;-83
2023/06/06 02:10:56;;;;;;;19.25;9.45;;;9.70;99.90;;;;;;5111988;27;20139;-83
2023/06/06 02:13:22;;;;;;;19.17;10.05;;;9.70;99.90;;;;;;5132577;27;20041;-83
2023/06/06 02:15:51;;;;;;;19.52;9.85;;;9.70;99.90;;;;;;5108570;27;20038;-84
2023/06/06 02:18:16;;;;;;;16.33;9.80;;;9.60;99.90;;;;;;5093780;27;20469;-84
2023/06/06 02:20:42;;;;;;;21.02;9.30;;;9.60;99.90;;;;;;5104779;27;20031;-84
2023/06/06 02:23:07;;;;;;;16.35;9.43;;;9.60;99.90;;;;;;5107145;27;20066;-83
2023/06/06 02:25:37;;;;;;;21.80;10.82;;;9.60;99.90;;;;;;5121217;27;20213;-83
2023/06/06 02:28:03;;;;;;;17.05;9.55;;;9.60;99.90;;;;;;5119273;27;20636;-84
2023/06/06 02:30:32;;;;;;;19.42;9.95;;;9.60;99.90;;;;;;5091458;27;20170;-84
2023/06/06 02:32:58;;;;;;;16.58;10.00;;;9.60;99.90;;;;;;5109425;27;20050;-84
2023/06/06 02:35:24;;;;;;;19.38;10.75;;;9.60;99.90;;;;;;5127212;27;20042;-84
2023/06/06 02:37:49;;;;;;;21.13;10.85;;;9.50;99.90;;;;;;5126323;27;20043;-84
2023/06/06 02:40:15;;;;;;;18.42;10.27;;;9.50;99.90;;;;;;5099137;27;20453;-84
2023/06/06 02:42:40;;;;;;;18.13;10.10;;;9.60;99.90;;;;;;5109210;27;20397;-83
2023/06/06 02:45:10;;;;;;;21.20;10.65;;;9.60;99.90;;;;;;5127095;27;20067;-84
2023/06/06 02:47:36;;;;;;;18.52;10.20;;;9.50;99.90;;;;;;5091379;27;20502;-84
2023/06/06 02:50:06;;;;;;;19.42;10.57;;;9.60;99.90;;;;;;5088352;27;20027;-84
2023/06/06 02:52:35;;;;;;;16.83;9.40;;;9.60;99.90;;;;;;5109091;27;20042;-85
2023/06/06 02:55:01;;;;;;;18.17;9.07;;;9.60;99.90;;;;;;5092343;27;20031;-84
2023/06/06 02:57:27;;;;;;;21.08;9.15;;;9.60;99.90;;;;;;5113270;27;20035;-85
2023/06/06 02:59:53;;;;;;;19.25;9.52;;;9.60;99.90;;;;;;5110729;27;20054;-85
2023/06/06 03:02:19;;;;;;;21.50;9.23;;;9.60;99.90;;;;;;5087887;27;20053;-84
2023/06/06 03:04:45;;;;;;;17.58;9.35;;;9.60;99.90;;;;;;5119658;27;20027;-84
2023/06/06 03:07:12;;;;;;;16.83;8.98;;;9.60;99.90;;;;;;5103059;27;20038;-84
2023/06/06 03:09:38;;;;;;;16.25;8.73;;;9.60;99.90;;;;;;5111161;27;20159;-84
2023/06/06 03:12:07;;;;;;;14.65;9.10;;;9.60;99.90;;;;;;5094131;27;20127;-84
2023/06/06 03:14:32;;;;;;;16.98;9.35;;;9.70;99.90;;;;;;5123327;27;20047;-84
2023/06/06 03:17:01;;;;;;;15.82;8.80;;;9.70;99.90;;;;;;5088617;27;20043;-84
2023/06/06 03:19:26;;;;;;;14.38;8.35;;;9.70;99.90;;;;;;5133539;27;20059;-85
2023/06/06 03:21:52;;;;;;;19.40;8.15;;;9.70;99.90;;;;;;5089613;27;20058;-84
2023/06/06 03:24:18;;;;;;;16.83;8.85;;;9.70;99.90;;;;;;5124763;27;20070;-84
2023/06/06 03:26:46;;;;;;;23.45;9.65;;;9.70;99.90;;;;;;5114290;27;20031;-84
2023/06/06 03:29:15;;;;;;;14.40;8.52;;;9.70;99.90;;;;;;5102486;27;20035;-84
2023/06/06 03:31:41;;;;;;;15.68;8.68;;;9.70;99.90;;;;;;5138358;27;20112;-85
2023/06/06 03:34:07;;;;;;;16.92;8.43;;;9.60;99.90;;;;;;5094181;27;20242;-85
2023/06/06 03:36:34;;;;;;;19.10;9.02;;;9.70;99.90;;;;;;5115277;27;20090;-84
2023/06/06 03:39:00;;;;;;;17.13;8.90;;;9.80;99.90;;;;;;5119998;27;20171;-84
2023/06/06 03:41:26;;;;;;;17.45;8.95;;;9.80;99.90;;;;;;5087516;27;20401;-84
2023/06/06 03:43:52;;;;;;;16.45;8.05;;;9.90;99.90;;;;;;5112873;27;20043;-84
2023/06/06 03:46:17;;;;;;;19.15;8.32;;;10.00;99.90;;;;;;5144619;27;20677;-85
2023/06/06 03:48:43;;;;;;;17.58;8.15;;;10.10;99.90;;;;;;5137380;27;20041;-84
2023/06/06 03:51:09;;;;;;;13.82;8.73;;;10.10;99.90;;;;;;5109724;27;20455;-84
2023/06/06 03:53:34;;;;;;;18.52;8.27;;;10.20;99.90;;;;;;5106334;27;20126;-84
2023/06/06 03:56:01;;;;;;;17.48;8.30;;;10.30;99.90;;;;;;5134832;27;20423;-85
2023/06/06 03:58:27;;;;;;;15.45;9.02;;;10.30;99.90;;;;;;5095547;27;20039;-84
2023/06/06 04:00:53;;;;;;;12.35;8.23;;;10.40;99.90;;;;;;5124530;27;20441;-85
2023/06/06 04:03:19;;;;;;;16.40;9.07;;;10.50;99.90;;;;;;5115337;27;20038;-85
2023/06/06 04:05:47;;;;;;;17.80;8.63;;;10.50;99.90;;;;;;5115124;27;20041;-85
2023/06/06 04:08:12;;;;;;;16.50;8.40;;;10.50;99.90;;;;;;5110166;27;20038;-84
2023/06/06 04:10:38;;;;;;;13.88;7.65;;;10.60;99.90;;;;;;5122431;27;20350;-84
2023/06/06 04:13:04;;;;;;;16.55;8.02;;;10.60;99.90;;;;;;5103821;27;20031;-85
2023/06/06 04:15:29;;;;;;;17.48;8.70;;;10.70;99.90;;;;;;5127179;27;20488;-84
2023/06/06 04:17:55;;;;;;;15.38;8.13;;;10.70;99.90;;;;;;5103256;27;20544;-84
2023/06/06 04:20:22;;;;;;;16.65;7.88;;;10.80;99.90;;;;;;5093937;27;20047;-85
2023/06/06 04:22:48;;;;;;;20.77;7.38;;;10.80;99.90;;;;;;5126531;27;20634;-84
2023/06/06 04:25:16;;;;;;;13.45;7.43;;;10.90;99.90;;;;;;5133350;27;20070;-84
2023/06/06 04:27:44;;;;;;;15.80;7.85;;;11.00;99.90;;;;;;5090910;27;20049;-85
2023/06/06 04:30:12;;;;;;;16.75;7.25;;;11.00;99.90;;;;;;5088780;27;20062;-84
2023/06/06 04:32:41;;;;;;;18.70;7.82;;;11.20;99.90;;;;;;5091333;27;20550;-84
2023/06/06 04:35:09;;;;;;;13.02;7.00;;;11.20;99.90;;;;;;5122371;27;20073;-85
2023/06/06 04:37:37;;;;;;;15.65;7.30;;;11.30;99.90;;;;;;5088455;27;20038;-84
2023/06/06 04:40:07;;;;;;;19.42;7.63;;;11.40;99.90;;;;;;5105880;27;20086;-84
2023/06/06 04:42:32;;;;;;;18.52;7.72;;;11.40;99.90;;;;;;5122820;27;20055;-85
2023/06/06 04:45:03;;;;;;;14.45;7.10;;;11.50;99.90;;;;;;5107011;27;20039;-84
2023/06/06 04:47:33;;;;;;;16.48;7.13;;;11.50;99.90;;;;;;5088655;27;20072;-83
2023/06/06 04:49:59;;;;;;;12.88;6.45;;;11.60;99.90;;;;;;5097419;27;20031;-84
2023/06/06 04:52:33;;;;;;;10.95;6.85;;;11.60;99.90;;;;;;5106214;27;20060;-84
2023/06/06 04:55:03;;;;;;;15.90;7.00;;;11.70;99.90;;;;;;5120771;27;20054;-84
2023/06/06 04:57:29;;;;;;;14.80;7.13;;;11.80;99.90;;;;;;5079407;27;20097;-84
2023/06/06 04:59:57;;;;;;;12.80;6.68;;;11.80;99.90;;;;;;5092226;27;20038;-85
2023/06/06 05:02:28;;;;;;;11.50;6.72;;;11.90;99.90;;;;;;5134407;27;20061;-84
2023/06/06 05:04:58;;;;;;;11.70;6.50;;;11.90;99.90;;;;;;5111609;27;20044;-83
2023/06/06 05:07:24;;;;;;;13.57;6.60;;;12.10;99.90;;;;;;5090163;27;20475;-84
2023/06/06 05:09:54;;;;;;;13.90;7.07;;;12.10;99.90;;;;;;5091998;27;20060;-84
2023/06/06 05:12:24;;;;;;;13.05;6.88;;;12.20;99.90;;;;;;5140647;27;20151;-83
2023/06/06 05:14:50;;;;;;;17.85;6.78;;;12.20;99.90;;;;;;5097725;27;20031;-83
2023/06/06 05:17:23;;;;;;;12.85;6.75;;;12.20;99.90;;;;;;5123183;27;20039;-83
2023/06/06 05:19:49;;;;;;;14.38;6.15;;;12.30;99.90;;;;;;5108544;27;20046;-84
2023/06/06 05:22:15;;;;;;;15.32;7.55;;;12.30;99.90;;;;;;5084573;27;20047;-84
2023/06/06 05:24:41;;;;;;;13.20;6.38;;;12.40;99.90;;;;;;5133616;27;20031;-82
2023/06/06 05:27:07;;;;;;;14.75;6.95;;;12.40;99.90;;;;;;5109662;27;20099;-84
2023/06/06 05:29:32;;;;;;;13.55;6.72;;;12.40;99.90;;;;;;5091784;27;20047;-83
2023/06/06 05:31:58;;;;;;;12.32;6.72;;;12.60;99.90;;;;;;5135957;27;20175;-83
2023/06/06 05:34:24;;;;;;;17.05;6.68;;;12.60;99.90;;;;;;5091126;28;20071;-83
2023/06/06 05:36:50;;;;;;;11.68;6.30;;;12.50;99.90;;;;;;5136792;27;20038;-83
2023/06/06 05:39:16;;;;;;;12.75;7.45;;;12.60;99.90;;;;;;5085354;27;20097;-83
2023/06/06 05:41:44;;;;;;;13.65;6.38;;;12.50;99.90;;;;;;5129096;27;20349;-83
2023/06/06 05:44:11;;;;;;;14.05;6.95;;;12.60;99.90;;;;;;5099010;27;20053;-83
2023/06/06 05:46:40;;;;;;;14.95;7.32;;;12.70;99.90;;;;;;5102192;27;20118;-83
2023/06/06 05:49:05;;;;;;;13.65;7.72;;;12.70;99.90;;;;;;5113819;27;20050;-83
2023/06/06 05:51:31;;;;;;;20.75;7.90;;;12.70;99.90;;;;;;5107388;27;20034;-83
2023/06/06 05:53:57;;;;;;;13.90;7.05;;;12.80;99.90;;;;;;5126916;27;20045;-83
2023/06/06 05:56:23;;;;;;;13.95;6.40;;;13.00;99.90;;;;;;5126000;27;20033;-83
2023/06/06 05:58:49;;;;;;;15.82;7.47;;;12.90;99.90;;;;;;5118139;27;20074;-83
2023/06/06 06:01:16;;;;;;;11.43;7.05;;;13.10;99.90;;;;;;5101859;27;20058;-83
2023/06/06 06:03:43;;;;;;;14.45;6.72;;;13.00;99.90;;;;;;5129517;27;20043;-83
2023/06/06 06:06:09;;;;;;;12.80;7.13;;;13.20;99.90;;;;;;5084653;27;20069;-83
2023/06/06 06:08:37;;;;;;;14.48;6.40;;;13.20;99.90;;;;;;5113512;27;20074;-82
2023/06/06 06:11:03;;;;;;;11.95;6.60;;;13.50;99.90;;;;;;5089165;27;20035;-83
2023/06/06 06:13:29;;;;;;;15.82;7.88;;;13.50;99.90;;;;;;5127718;27;20035;-82
2023/06/06 06:15:56;;;;;;;11.30;6.22;;;13.40;99.90;;;;;;5138295;27;20678;-83
2023/06/06 06:18:21;;;;;;;13.65;6.20;;;13.60;99.90;;;;;;5129028;27;20041;-83
2023/06/06 06:20:47;;;;;;;11.23;6.07;;;13.60;99.90;;;;;;5105117;27;20034;-82
2023/06/06 06:23:13;;;;;;;13.02;5.97;;;13.60;99.90;;;;;;5111247;27;20094;-83
2023/06/06 06:25:39;;;;;;;12.20;5.80;;;13.90;99.90;;;;;;5093600;27;20122;-83
2023/06/06 06:28:05;;;;;;;14.68;6.40;;;13.90;99.90;;;;;;5098704;27;20041;-83
2023/06/06 06:30:31;;;;;;;9.18;6.18;;;14.30;99.90;;;;;;5097265;27;20035;-82
2023/06/06 06:32:56;;;;;;;15.27;5.80;;;14.30;99.90;;;;;;5086715;27;20052;-82
2023/06/06 06:35:25;;;;;;;10.60;5.90;;;14.50;99.90;;;;;;5115326;27;20158;-82
2023/06/06 06:37:51;;;;;;;12.27;5.57;;;14.60;99.90;;;;;;5123084;27;20074;-83
2023/06/06 06:40:17;;;;;;;11.25;5.43;;;14.20;99.90;;;;;;5091604;27;20098;-83
2023/06/06 06:42:44;;;;;;;13.32;6.18;;;14.20;99.90;;;;;;5105632;27;20038;-83
2023/06/06 06:45:14;;;;;;;18.75;6.05;;;14.10;99.90;;;;;;5114977;27;20188;-83
2023/06/06 06:47:40;;;;;;;10.05;5.82;;;13.80;99.90;;;;;;5117514;27;20445;-83
2023/06/06 06:50:07;;;;;;;14.07;5.80;;;13.80;99.90;;;;;;5114321;27;20039;-82
2023/06/06 06:52:33;;;;;;;10.10;4.78;;;13.90;99.90;;;;;;5092490;27;20034;-82
2023/06/06 06:55:04;;;;;;;10.02;5.22;;;14.20;99.90;;;;;;5107543;27;20074;-82
2023/06/06 06:57:30;;;;;;;11.00;5.10;;;14.20;99.90;;;;;;5097619;27;20050;-83
2023/06/06 06:59:56;;;;;;;7.32;4.88;;;14.50;99.90;;;;;;5122404;27;20457;-82
2023/06/06 07:02:27;;;;;;;8.50;5.00;;;14.40;99.90;;;;;;5098899;27;20091;-82
2023/06/06 07:05:01;;;;;;;7.07;4.45;;;14.30;99.90;;;;;;5109988;27;20468;-82
2023/06/06 07:07:27;;;;;;;9.73;4.75;;;14.60;99.90;;;;;;5100313;27;20035;-82
2023/06/06 07:09:52;;;;;;;12.60;5.35;;;14.60;99.90;;;;;;5141034;27;20043;-82
2023/06/06 07:12:20;;;;;;;7.63;4.80;;;14.50;99.90;;;;;;5105585;27;20113;-82
2023/06/06 07:14:46;;;;;;;7.60;4.97;;;14.50;99.90;;;;;;5124295;27;20123;-83
2023/06/06 07:17:15;;;;;;;13.38;4.65;;;14.60;99.90;;;;;;5123105;27;20553;-81
2023/06/06 07:19:42;;;;;;;9.18;4.43;;;14.70;99.90;;;;;;5095251;27;20355;-82
2023/06/06 07:22:08;;;;;;;8.07;4.18;;;15.00;99.90;;;;;;5104778;27;20070;-82
2023/06/06 07:24:34;;;;;;;8.88;4.30;;;14.90;99.90;;;;;;5126589;27;20047;-83
2023/06/06 07:27:00;;;;;;;10.82;4.57;;;15.00;99.90;;;;;;5126053;27;20027;-83
2023/06/06 07:29:27;;;;;;;9.32;4.57;;;14.80;99.90;;;;;;5091060;27;20024;-82
2023/06/06 07:31:54;;;;;;;7.85;4.43;;;15.00;99.90;;;;;;5106135;27;20197;-83
2023/06/06 07:34:20;;;;;;;11.32;5.60;;;14.80;99.90;;;;;;5099526;27;20043;-83
2023/06/06 07:36:46;;;;;;;8.25;4.70;;;15.00;99.90;;;;;;5099144;27;20567;-82
2023/06/06 07:39:12;;;;;;;9.70;4.85;;;15.10;99.90;;;;;;5084902;27;20050;-83
2023/06/06 07:41:39;;;;;;;13.05;5.03;;;15.10;99.90;;;;;;5118893;27;20046;-83
2023/06/06 07:44:05;;;;;;;14.65;5.45;;;15.10;99.90;;;;;;5099067;27;20032;-82
2023/06/06 07:46:31;;;;;;;7.50;4.35;;;15.10;99.90;;;;;;5087291;27;20429;-82
2023/06/06 07:48:59;;;;;;;8.55;4.60;;;15.50;99.90;;;;;;5079171;27;20123;-82
2023/06/06 07:51:25;;;;;;;12.90;5.15;;;15.40;99.90;;;;;;5089280;27;20150;-83
2023/06/06 07:53:52;;;;;;;11.98;4.68;;;15.60;99.90;;;;;;5086969;27;20121;-82
2023/06/06 07:56:18;;;;;;;10.80;5.22;;;15.30;99.90;;;;;;5085062;28;20449;-82
2023/06/06 07:58:52;;;;;;;12.82;5.07;;;15.30;99.90;;;;;;5103673;27;20550;-83
2023/06/06 08:01:21;;;;;;;10.33;4.83;;;15.60;99.90;;;;;;5096934;27;20040;-82
2023/06/06 08:03:51;;;;;;;8.48;4.50;;;15.80;99.90;;;;;;5096366;27;20292;-83
2023/06/06 08:06:18;;;;;;;9.10;4.97;;;15.90;99.90;;;;;;5105784;27;20030;-83
2023/06/06 08:08:45;;;;;;;7.97;4.78;;;16.00;99.90;;;;;;5083755;27;20211;-82
2023/06/06 08:11:12;;;;;;;11.23;4.93;;;16.10;99.90;;;;;;5117897;27;20039;-83
2023/06/06 08:13:38;;;;;;;11.50;4.82;;;15.70;99.90;;;;;;5086031;27;20088;-83
2023/06/06 08:16:03;;;;;;;12.55;5.68;;;15.90;99.90;;;;;;5135298;27;20043;-82
2023/06/06 08:18:30;;;;;;;12.18;5.28;;;15.80;99.90;;;;;;5076907;27;20051;-82
2023/06/06 08:20:56;;;;;;;11.77;4.55;;;15.70;99.90;;;;;;5080923;28;20433;-82
2023/06/06 08:23:23;;;;;;;8.90;5.10;;;15.90;99.90;;;;;;5082205;27;20115;-82
2023/06/06 08:25:48;;;;;;;6.28;4.40;;;16.60;99.90;;;;;;5085320;28;20040;-83
2023/06/06 08:28:15;;;;;;;8.35;5.22;;;16.50;99.90;;;;;;5104996;27;20026;-82
2023/06/06 08:30:41;;;;;;;8.77;4.80;;;16.70;99.90;;;;;;5087772;28;20058;-82
2023/06/06 08:33:06;;;;;;;9.52;4.85;;;16.60;99.90;;;;;;5081086;28;20028;-82
2023/06/06 08:35:35;;;;;;;10.77;5.05;;;16.90;99.90;;;;;;5102054;27;20035;-82
2023/06/06 08:38:00;;;;;;;9.40;4.30;;;16.80;99.90;;;;;;5116812;27;20043;-82
2023/06/06 08:40:26;;;;;;;10.07;5.30;;;17.00;99.90;;;;;;5101574;27;20172;-82
2023/06/06 08:42:52;;;;;;;7.88;4.55;;;17.10;99.90;;;;;;5106344;27;20103;-82
2023/06/06 08:45:21;;;;;;;8.82;4.82;;;17.20;99.90;;;;;;5117807;27;20042;-82
2023/06/06 08:47:51;;;;;;;8.57;4.38;;;17.10;99.90;;;;;;5096520;27;20243;-83
2023/06/06 08:50:18;;;;;;;8.98;5.00;;;17.20;99.90;;;;;;5084342;27;20031;-83
2023/06/06 08:52:46;;;;;;;12.30;5.43;;;16.80;99.90;;;;;;5094876;27;20110;-82
2023/06/06 08:55:12;;;;;;;9.88;5.25;;;17.00;99.90;;;;;;5116004;27;20355;-82
2023/06/06 08:57:41;;;;;;;10.40;5.43;;;16.80;99.90;;;;;;5089473;27;20072;-82
2023/06/06 09:00:20;;;;;;;10.82;6.03;;;16.70;99.90;;;;;;5090282;27;20027;-82
2023/06/06 09:02:52;;;;;;;11.50;5.85;;;16.70;99.90;;;;;;5098967;28;20039;-82
2023/06/06 09:05:19;;;;;;;14.05;6.53;;;16.90;99.90;;;;;;5097967;27;20039;-82
2023/06/06 09:07:48;;;;;;;11.27;6.20;;;16.80;99.90;;;;;;5101874;27;20036;-82
2023/06/06 09:10:15;;;;;;;7.38;5.30;;;16.90;99.90;;;;;;5103363;27;20051;-82
2023/06/06 09:12:46;;;;;;;9.50;5.60;;;17.00;99.90;;;;;;5105827;27;20039;-82
2023/06/06 09:15:13;;;;;;;13.50;5.90;;;16.80;99.90;;;;;;5102434;28;20070;-82
2023/06/06 09:17:40;;;;;;;11.95;6.13;;;17.00;99.90;;;;;;5132488;27;20051;-83
2023/06/06 09:20:10;;;;;;;8.00;4.95;;;16.90;99.90;;;;;;5103669;27;20272;-82
2023/06/06 09:22:47;;;;;;;11.32;5.15;;;17.10;99.90;;;;;;5134658;27;20063;-82
2023/06/06 09:25:20;;;;;;;8.80;5.18;;;17.30;99.90;;;;;;5094162;27;20067;-82
2023/06/06 09:27:47;;;;;;;12.77;5.88;;;16.80;99.90;;;;;;5123988;27;20039;-82
2023/06/06 09:30:27;;;;;;;8.80;5.60;;;17.10;99.90;;;;;;5083831;27;20035;-82
2023/06/06 09:32:56;;;;;;;11.30;5.40;;;17.20;99.90;;;;;;5102541;28;20039;-81
2023/06/06 09:35:22;;;;;;;8.07;5.80;;;17.80;99.90;;;;;;5116600;27;20627;-82
2023/06/06 09:37:49;;;;;;;10.93;5.32;;;18.20;99.90;;;;;;5100615;28;20044;-82
2023/06/06 09:40:17;;;;;;;9.52;5.60;;;18.40;99.90;;;;;;5117509;27;20330;-81
2023/06/06 09:42:47;;;;;;;7.30;5.70;;;17.60;99.90;;;;;;5077338;27;20179;-82
2023/06/06 09:45:13;;;;;;;10.45;5.93;;;17.60;99.90;;;;;;5080050;27;20078;-82
2023/06/06 09:47:40;;;;;;;13.07;5.95;;;17.80;99.90;;;;;;5134019;27;20077;-82
2023/06/06 09:50:09;;;;;;;11.63;6.07;;;18.00;99.90;;;;;;5098742;27;20054;-82
2023/06/06 09:52:35;;;;;;;11.30;6.40;;;18.10;99.90;;;;;;5094133;27;20045;-82
2023/06/06 09:55:12;;;;;;;11.50;6.57;;;18.00;99.90;;;;;;5108511;27;20039;-82
2023/06/06 09:57:39;;;;;;;16.42;6.57;;;17.80;99.90;;;;;;5107820;27;20122;-82
2023/06/06 10:00:12;;;;;;;12.48;6.47;;;17.90;99.90;;;;;;5122409;27;20628;-81
2023/06/06 10:02:48;;;;;;;13.57;6.63;;;18.20;99.90;;;;;;5130332;27;20033;-81
2023/06/06 10:05:15;;;;;;;11.15;6.30;;;18.10;99.90;;;;;;5089319;27;20035;-82
2023/06/06 10:07:45;;;;;;;15.48;7.38;;;18.70;99.90;;;;;;5107222;27;20378;-81
2023/06/06 10:10:16;;;;;;;19.10;7.07;;;18.30;99.90;;;;;;5113400;27;20517;-82
2023/06/06 10:12:43;;;;;;;12.10;6.05;;;18.60;99.90;;;;;;5108136;27;20044;-81
2023/06/06 10:15:12;;;;;;;10.70;6.65;;;18.70;99.90;;;;;;5088976;27;20097;-82
2023/06/06 10:17:41;;;;;;;10.65;6.63;;;18.80;99.90;;;;;;5090219;27;20380;-83
2023/06/06 10:20:14;;;;;;;9.02;6.40;;;19.20;99.90;;;;;;5120053;27;20505;-82
2023/06/06 10:22:41;;;;;;;12.93;6.70;;;18.90;99.90;;;;;;5113591;27;20039;-82
2023/06/06 10:25:12;;;;;;;6.88;5.53;;;18.70;99.90;;;;;;5113554;27;20031;-82
2023/06/06 10:27:54;;;;;;;10.40;6.60;;;19.20;99.90;;;;;;5092587;27;20030;-82
2023/06/06 10:30:32;;;;;;;12.13;6.85;;;19.30;99.90;;;;;;5086335;27;20130;-82
2023/06/06 10:33:10;;;;;;;11.55;6.78;;;19.00;99.90;;;;;;5106407;27;20065;-83
2023/06/06 10:35:38;;;;;;;11.23;6.25;;;18.60;99.90;;;;;;5103591;27;20086;-82
2023/06/06 10:38:09;;;;;;;9.40;6.22;;;18.90;99.90;;;;;;5127591;27;20122;-82
2023/06/06 10:40:58;;;;;;;10.05;6.03;;;18.70;99.90;;;;;;5108140;27;20138;-81
2023/06/06 10:43:41;;;;;;;11.63;6.60;;;19.00;99.90;;;;;;5086254;27;20173;-82
2023/06/06 10:46:07;;;;;;;10.55;6.47;;;18.60;99.90;;;;;;5087412;27;20038;-82
2023/06/06 10:48:40;;;;;;;13.23;6.60;;;18.60;99.90;;;;;;5117365;27;20036;-82
2023/06/06 10:51:07;;;;;;;9.88;6.28;;;19.20;99.90;;;;;;5132958;27;20031;-81
2023/06/06 10:53:36;;;;;;;7.95;5.55;;;19.70;99.90;;;;;;5084601;27;20043;-82
2023/06/06 10:56:06;;;;;;;10.77;6.18;;;18.90;99.90;;;;;;5105478;27;20042;-82
2023/06/06 10:58:33;;;;;;;10.75;5.65;;;18.90;99.90;;;;;;5118558;27;20107;-81
2023/06/06 11:01:06;;;;;;;11.73;5.95;;;19.10;99.90;;;;;;5086083;27;20043;-82
2023/06/06 11:03:36;;;;;;;9.10;6.00;;;19.20;99.90;;;;;;5094834;27;20107;-82
2023/06/06 11:06:08;;;;;;;12.00;6.50;;;19.30;99.90;;;;;;5083244;27;20039;-82
2023/06/06 11:08:43;;;;;;;10.80;5.80;;;19.30;99.90;;;;;;5095401;27;20036;-82
2023/06/06 11:11:15;;;;;;;9.57;6.38;;;19.60;99.90;;;;;;5097850;27;20059;-83
2023/06/06 11:14:07;;;;;;;9.38;5.70;;;18.80;99.90;;;;;;5087542;27;20042;-82
2023/06/06 11:16:48;;;;;;;8.90;5.60;;;19.20;99.90;;;;;;5106322;27;20054;-82
2023/06/06 11:19:16;;;;;;;8.55;4.93;;;19.10;99.90;;;;;;5132624;27;20039;-82
2023/06/06 11:21:43;;;;;;;11.05;5.70;;;19.90;99.90;;;;;;5122767;27;20046;-82
2023/06/06 11:24:10;;;;;;;10.05;5.13;;;20.40;99.90;;;;;;5115765;27;20054;-81
2023/06/06 11:26:37;;;;;;;9.32;5.43;;;19.80;99.90;;;;;;5091515;27;20100;-82
2023/06/06 11:29:05;;;;;;;9.73;5.30;;;19.40;99.90;;;;;;5124114;27;20036;-82
2023/06/06 11:31:37;;;;;;;6.57;4.60;;;19.10;99.90;;;;;;5111085;27;20122;-82
2023/06/06 11:34:14;;;;;;;7.40;5.53;;;19.70;99.90;;;;;;5125343;27;20070;-82
2023/06/06 11:36:42;;;;;;;9.57;5.50;;;19.50;99.90;;;;;;5092774;27;20412;-81
2023/06/06 11:39:11;;;;;;;9.23;4.72;;;20.10;99.90;;;;;;5089275;27;20062;-82
2023/06/06 11:41:40;;;;;;;13.65;5.57;;;20.20;99.90;;;;;;5110374;27;20047;-82
2023/06/06 11:44:05;;;;;;;11.38;5.50;;;19.80;99.90;;;;;;5140184;27;20034;-82
2023/06/06 11:46:44;;;;;;;9.63;5.30;;;20.00;99.90;;;;;;5119885;27;20392;-82
2023/06/06 11:49:13;;;;;;;10.05;5.20;;;19.60;99.90;;;;;;5085290;27;20045;-81
2023/06/06 11:51:38;;;;;;;9.23;5.40;;;19.70;99.90;;;;;;5109303;27;20040;-82
2023/06/06 11:54:18;;;;;;;10.25;5.15;;;20.10;99.90;;;;;;5142708;27;20044;-81
2023/06/06 11:56:44;;;;;;;9.13;5.40;;;19.70;1.00;;;;;;5105394;27;20035;-82
2023/06/06 11:59:20;;;;;;;10.05;5.40;;;19.50;1.00;;;;;;5103911;27;20430;-82
2023/06/06 12:01:49;;;;;;;9.45;4.95;;;19.20;99.90;;;;;;5084790;27;20047;-81
2023/06/06 12:04:16;;;;;;;10.50;4.90;;;19.20;99.90;;;;;;5111489;27;20138;-82
2023/06/06 12:06:53;;;;;;;12.25;5.43;;;19.80;99.90;;;;;;5094804;27;20914;-82
2023/06/06 12:09:20;;;;;;;8.70;5.25;;;20.20;99.90;;;;;;5086122;27;20043;-80
2023/06/06 12:11:59;;;;;;;8.98;5.72;;;20.20;1.00;;;;;;5122454;27;20049;-82
2023/06/06 12:14:26;;;;;;;8.70;5.43;;;19.80;99.90;;;;;;5097304;27;20045;-81
2023/06/06 12:16:52;;;;;;;10.63;5.45;;;19.70;99.90;;;;;;5123404;27;20929;-82
2023/06/06 12:19:19;;;;;;;9.57;4.90;;;19.60;99.90;;;;;;5102794;27;20517;-82
2023/06/06 12:21:46;;;;;;;9.90;5.40;;;19.90;1.00;;;;;;5108999;27;20546;-82
2023/06/06 12:24:31;;;;;;;7.32;4.97;;;19.90;99.90;;;;;;5121445;27;20450;-82
2023/06/06 12:27:05;;;;;;;9.20;5.07;;;19.30;79.50;;;;;;5098589;27;20041;-82
2023/06/06 12:29:35;;;;;;;9.60;5.00;;;19.50;1.00;;;;;;5105216;27;20024;-82
2023/06/06 12:32:16;;;;;;;10.07;5.35;;;19.60;1.00;;;;;;5109293;27;20173;-82
2023/06/06 12:34:43;;;;;;;9.07;5.50;;;19.90;99.90;;;;;;5114257;27;20071;-81
2023/06/06 12:37:10;;;;;;;10.07;4.97;;;20.30;1.00;;;;;;5103020;27;20158;-82
2023/06/06 12:39:39;;;;;;;12.00;4.90;;;21.20;1.00;;;;;;5106759;27;20062;-82
2023/06/06 12:42:17;;;;;;;8.07;5.10;;;20.60;99.90;;;;;;5103871;27;20451;-82
2023/06/06 12:44:44;;;;;;;10.68;5.25;;;20.50;99.90;;;;;;5108015;27;20150;-81
2023/06/06 12:47:20;;;;;;;10.48;5.38;;;20.20;1.00;;;;;;5118140;27;20088;-82